Time;durP1;ratioP1;P1;durP2;ratioP2;P2;SDS_P1;SDS_P2;PMS_P1;PMS_P2;Temp;Humidity;BMP_temperature;BMP_pressure;BME280_temperature;BME280_humidity;BME280_pressure;Samples;Min_cycle;Max_cycle;Signal;HPM_P1;HPM_P2
2023/04/21 00:00:39;;;;;;;31.83;17.00;;;9.10;99.90;;;;;;4973970;28;20058;-86
2023/04/21 00:03:26;;;;;;;30.45;15.25;;;9.10;99.90;;;;;;4977864;28;20090;-83
2023/04/21 00:06:12;;;;;;;32.13;15.95;;;9.10;99.90;;;;;;4991844;28;20510;-86
2023/04/21 00:08:58;;;;;;;30.80;15.48;;;9.10;99.90;;;;;;4974498;28;20055;-85
2023/04/21 00:11:44;;;;;;;34.60;16.65;;;9.10;99.90;;;;;;4973256;28;20581;-85
2023/04/21 00:14:31;;;;;;;33.38;15.43;;;9.00;99.90;;;;;;4973495;28;20563;-85
2023/04/21 00:17:18;;;;;;;33.78;16.85;;;9.00;99.90;;;;;;4973523;28;20055;-85
2023/04/21 00:20:05;;;;;;;28.15;15.82;;;8.90;99.90;;;;;;4959093;28;20054;-85
2023/04/21 00:22:52;;;;;;;39.53;17.13;;;8.90;99.90;;;;;;4989962;28;20084;-85
2023/04/21 00:25:38;;;;;;;33.15;16.65;;;8.80;99.90;;;;;;4959430;28;20143;-83
2023/04/21 00:28:25;;;;;;;33.88;17.05;;;8.80;99.90;;;;;;4973234;28;20068;-85
2023/04/21 00:31:11;;;;;;;30.60;16.77;;;8.80;99.90;;;;;;4960404;28;20800;-84
2023/04/21 00:33:57;;;;;;;31.42;16.33;;;8.70;99.90;;;;;;4990721;28;20380;-85
2023/04/21 00:36:44;;;;;;;33.25;16.83;;;8.70;99.90;;;;;;4990414;28;20418;-83
2023/04/21 00:39:30;;;;;;;41.03;18.83;;;8.70;99.90;;;;;;4972919;28;20133;-85
2023/04/21 00:42:16;;;;;;;33.38;16.95;;;8.70;99.90;;;;;;4959975;28;20149;-86
2023/04/21 00:45:03;;;;;;;36.05;18.48;;;8.70;99.90;;;;;;4973532;28;20058;-85
2023/04/21 00:47:50;;;;;;;36.10;18.90;;;8.60;99.90;;;;;;4990315;28;20088;-84
2023/04/21 00:50:37;;;;;;;38.78;18.33;;;8.60;99.90;;;;;;4959905;28;20077;-85
2023/04/21 00:53:23;;;;;;;39.88;20.02;;;8.60;99.90;;;;;;4972783;28;20169;-85
2023/04/21 00:56:09;;;;;;;38.92;19.27;;;8.60;99.90;;;;;;4973500;28;20116;-84
2023/04/21 00:58:58;;;;;;;40.92;19.52;;;8.60;99.90;;;;;;4973061;28;20065;-83
2023/04/21 01:01:44;;;;;;;41.92;19.05;;;8.50;99.90;;;;;;4989921;28;20054;-84
2023/04/21 01:04:37;;;;;;;34.75;18.00;;;8.50;99.90;;;;;;4990944;28;20057;-83
2023/04/21 01:07:24;;;;;;;36.45;18.92;;;8.50;99.90;;;;;;4990536;28;20065;-82
2023/04/21 01:10:10;;;;;;;35.47;19.63;;;8.50;99.90;;;;;;4990724;28;20392;-84
2023/04/21 01:12:56;;;;;;;36.88;20.50;;;8.50;99.90;;;;;;4959558;28;20656;-85
2023/04/21 01:15:42;;;;;;;54.95;22.00;;;8.50;99.90;;;;;;4989885;28;20050;-83
2023/04/21 01:18:29;;;;;;;39.05;19.15;;;8.50;99.90;;;;;;4990351;28;20100;-84
2023/04/21 01:21:16;;;;;;;40.13;20.52;;;8.50;99.90;;;;;;4973465;28;20082;-85
2023/04/21 01:24:02;;;;;;;35.92;19.98;;;8.50;99.90;;;;;;4972580;28;20058;-86
2023/04/21 01:26:48;;;;;;;35.22;18.90;;;8.40;99.90;;;;;;4984597;28;20057;-81
2023/04/21 01:29:34;;;;;;;43.83;19.42;;;8.40;99.90;;;;;;4980242;28;20433;-83
2023/04/21 01:32:27;;;;;;;39.55;20.13;;;8.50;99.90;;;;;;4979615;28;20052;-84
2023/04/21 01:35:13;;;;;;;35.83;19.00;;;8.40;99.90;;;;;;4993272;28;20054;-83
2023/04/21 01:38:00;;;;;;;38.92;20.27;;;8.50;99.90;;;;;;4993487;28;20054;-83
2023/04/21 01:40:52;;;;;;;42.22;20.40;;;8.40;99.90;;;;;;4993052;28;20494;-85
2023/04/21 01:43:38;;;;;;;38.30;19.60;;;8.40;99.90;;;;;;4994292;28;20418;-82
2023/04/21 01:46:24;;;;;;;44.20;20.27;;;8.40;99.90;;;;;;4992205;28;20141;-85
2023/04/21 01:49:10;;;;;;;37.95;19.75;;;8.40;99.90;;;;;;4992621;28;20046;-84
2023/04/21 01:51:57;;;;;;;39.30;19.95;;;8.40;99.90;;;;;;4992903;28;20089;-83
2023/04/21 01:54:43;;;;;;;34.17;19.55;;;8.40;99.90;;;;;;4992598;28;20050;-83
2023/04/21 01:57:29;;;;;;;47.40;20.67;;;8.40;99.90;;;;;;4993284;28;20093;-82
2023/04/21 02:00:15;;;;;;;50.15;21.38;;;8.30;99.90;;;;;;4991580;28;20046;-83
2023/04/21 02:03:03;;;;;;;49.05;20.67;;;8.30;99.90;;;;;;4993266;28;20062;-85
2023/04/21 02:05:52;;;;;;;36.80;18.95;;;8.30;99.90;;;;;;4993082;28;20050;-83
2023/04/21 02:08:38;;;;;;;39.25;19.38;;;8.30;99.90;;;;;;4992152;28;20089;-83
2023/04/21 02:11:25;;;;;;;38.30;19.63;;;8.30;99.90;;;;;;4994231;28;20138;-81
2023/04/21 02:14:11;;;;;;;40.83;19.65;;;8.30;99.90;;;;;;4992678;28;20054;-81
2023/04/21 02:16:58;;;;;;;39.15;20.42;;;8.30;99.90;;;;;;4992614;28;20085;-81
2023/04/21 02:19:44;;;;;;;37.55;19.40;;;8.30;99.90;;;;;;4978720;28;20058;-83
2023/04/21 02:22:31;;;;;;;40.05;17.63;;;8.30;99.90;;;;;;4992121;28;20054;-82
2023/04/21 02:25:18;;;;;;;39.33;19.65;;;8.30;99.90;;;;;;4993247;28;20096;-85
2023/04/21 02:28:04;;;;;;;37.67;19.15;;;8.20;99.90;;;;;;4992043;28;20142;-84
2023/04/21 02:30:50;;;;;;;36.13;18.52;;;8.20;99.90;;;;;;4991395;28;20054;-81
2023/04/21 02:33:38;;;;;;;40.28;19.02;;;8.20;99.90;;;;;;4992279;28;20053;-83
2023/04/21 02:36:25;;;;;;;34.60;18.17;;;8.20;99.90;;;;;;4992028;28;20052;-80
2023/04/21 02:39:20;;;;;;;40.35;18.08;;;8.20;99.90;;;;;;4992335;28;20050;-83
2023/04/21 02:42:06;;;;;;;42.28;19.10;;;8.20;99.90;;;;;;4978842;28;20058;-82
2023/04/21 02:44:52;;;;;;;31.27;17.25;;;8.20;99.90;;;;;;4990821;28;20477;-84
2023/04/21 02:47:38;;;;;;;34.42;17.48;;;8.20;99.90;;;;;;4994370;28;20047;-82
2023/04/21 02:50:24;;;;;;;36.22;17.48;;;8.20;99.90;;;;;;4993806;28;20538;-84
2023/04/21 02:53:10;;;;;;;34.15;18.13;;;8.20;99.90;;;;;;4992673;28;20098;-81
2023/04/21 02:55:56;;;;;;;32.55;16.27;;;8.20;99.90;;;;;;4992097;28;20110;-84
2023/04/21 02:58:42;;;;;;;34.97;17.83;;;8.20;99.90;;;;;;4991637;28;20121;-85
2023/04/21 03:01:29;;;;;;;34.20;18.27;;;8.10;99.90;;;;;;4992796;28;20046;-81
2023/04/21 03:04:15;;;;;;;31.38;18.55;;;8.10;99.90;;;;;;4992706;28;20050;-82
2023/04/21 03:07:01;;;;;;;34.42;19.40;;;8.10;99.90;;;;;;4991464;28;20404;-83
2023/04/21 03:09:47;;;;;;;41.75;19.60;;;8.10;99.90;;;;;;4993240;28;20046;-86
2023/04/21 03:12:33;;;;;;;37.15;18.70;;;8.10;99.90;;;;;;4991804;28;20498;-81
2023/04/21 03:15:19;;;;;;;33.30;17.00;;;8.10;99.90;;;;;;4990636;28;20061;-83
2023/04/21 03:18:05;;;;;;;31.42;16.85;;;8.00;99.90;;;;;;4990955;28;20054;-81
2023/04/21 03:20:52;;;;;;;36.25;18.55;;;8.00;99.90;;;;;;4992825;28;20521;-85
2023/04/21 03:23:38;;;;;;;32.88;19.45;;;8.00;99.90;;;;;;4991345;28;20052;-82
2023/04/21 03:26:24;;;;;;;31.73;17.30;;;8.00;99.90;;;;;;4990407;28;20538;-82
2023/04/21 03:29:10;;;;;;;40.47;17.77;;;8.00;99.90;;;;;;4991262;28;20536;-80
2023/04/21 03:31:56;;;;;;;35.22;18.33;;;8.00;99.90;;;;;;4991302;28;20170;-82
2023/04/21 03:34:42;;;;;;;36.10;17.15;;;8.00;99.90;;;;;;4992805;28;20498;-81
2023/04/21 03:37:28;;;;;;;37.45;17.65;;;7.90;99.90;;;;;;4991755;28;20804;-82
2023/04/21 03:40:15;;;;;;;35.70;18.38;;;7.90;99.90;;;;;;4991421;28;20053;-82
2023/04/21 03:43:01;;;;;;;37.45;16.95;;;7.90;99.90;;;;;;4991695;28;20086;-84
2023/04/21 03:45:47;;;;;;;28.67;16.65;;;7.80;99.90;;;;;;4977971;28;20120;-83
2023/04/21 03:48:33;;;;;;;37.83;17.25;;;7.80;99.90;;;;;;4990356;28;20069;-84
2023/04/21 03:51:19;;;;;;;34.70;17.63;;;7.80;99.90;;;;;;4990932;28;20162;-84
2023/04/21 03:54:05;;;;;;;31.02;17.33;;;7.80;99.90;;;;;;4991357;28;20050;-84
2023/04/21 03:56:51;;;;;;;28.20;16.55;;;7.70;99.90;;;;;;4991293;28;20583;-86
2023/04/21 03:59:37;;;;;;;40.50;15.75;;;7.70;99.90;;;;;;4991195;28;20050;-81
2023/04/21 04:02:23;;;;;;;31.42;15.68;;;7.70;99.90;;;;;;4992257;28;20058;-84
2023/04/21 04:05:09;;;;;;;32.47;15.02;;;7.70;99.90;;;;;;4992620;28;20058;-82
2023/04/21 04:07:55;;;;;;;29.27;16.17;;;7.70;99.90;;;;;;4990131;28;20088;-84
2023/04/21 04:10:41;;;;;;;27.83;15.65;;;7.60;99.90;;;;;;4990971;28;20062;-84
2023/04/21 04:13:28;;;;;;;32.45;16.17;;;7.70;99.90;;;;;;4990792;28;20062;-85
2023/04/21 04:16:14;;;;;;;35.67;15.95;;;7.60;99.90;;;;;;4990771;28;20086;-85
2023/04/21 04:19:00;;;;;;;33.67;16.52;;;7.60;99.90;;;;;;4990905;28;20116;-85
2023/04/21 04:21:46;;;;;;;32.45;15.82;;;7.60;99.90;;;;;;4991126;28;20050;-85
2023/04/21 04:24:33;;;;;;;32.25;15.23;;;7.60;99.90;;;;;;4991480;28;20050;-85
2023/04/21 04:27:20;;;;;;;30.13;14.75;;;7.60;99.90;;;;;;4995501;28;20115;-84
2023/04/21 04:30:06;;;;;;;31.27;16.65;;;7.60;99.90;;;;;;4979236;28;20057;-81
2023/04/21 04:32:53;;;;;;;32.03;16.83;;;7.60;99.90;;;;;;4980352;28;20054;-82
2023/04/21 04:35:39;;;;;;;30.67;15.77;;;7.50;99.90;;;;;;4992364;28;20046;-85
2023/04/21 04:38:27;;;;;;;30.95;17.23;;;7.60;99.90;;;;;;4992333;28;20112;-84
2023/04/21 04:41:14;;;;;;;27.25;15.45;;;7.60;99.90;;;;;;4991957;28;20060;-85
2023/04/21 04:44:03;;;;;;;34.78;16.35;;;7.50;99.90;;;;;;4993747;28;20057;-82
2023/04/21 04:46:50;;;;;;;29.13;15.63;;;7.50;99.90;;;;;;4993686;28;20506;-85
2023/04/21 04:49:36;;;;;;;30.83;15.13;;;7.50;99.90;;;;;;4993932;28;20155;-85
2023/04/21 04:52:22;;;;;;;26.85;15.18;;;7.60;99.90;;;;;;4992530;28;20064;-84
2023/04/21 04:55:08;;;;;;;32.85;15.77;;;7.60;99.90;;;;;;4980232;28;20536;-85
2023/04/21 04:57:54;;;;;;;30.17;14.80;;;7.50;99.90;;;;;;4993327;28;20544;-84
2023/04/21 05:00:40;;;;;;;29.50;14.75;;;7.60;99.90;;;;;;4992324;28;20402;-84
2023/04/21 05:03:26;;;;;;;31.70;16.88;;;7.60;99.90;;;;;;5009460;28;20058;-87
2023/04/21 05:06:13;;;;;;;27.52;16.27;;;7.60;99.90;;;;;;4992295;28;20108;-85
2023/04/21 05:08:59;;;;;;;31.42;16.08;;;7.70;99.90;;;;;;5009792;28;20054;-84
2023/04/21 05:11:45;;;;;;;27.50;14.30;;;7.70;99.90;;;;;;5011113;28;20128;-85
2023/04/21 05:14:31;;;;;;;32.05;15.93;;;7.70;99.90;;;;;;4993013;28;20042;-84
2023/04/21 05:17:17;;;;;;;27.27;14.35;;;7.80;99.90;;;;;;4993282;28;20057;-84
2023/04/21 05:20:04;;;;;;;27.92;15.38;;;7.90;99.90;;;;;;4992592;28;20085;-83
2023/04/21 05:22:50;;;;;;;27.45;14.20;;;7.80;99.90;;;;;;4996044;28;20144;-88
2023/04/21 05:25:37;;;;;;;30.42;14.13;;;7.90;99.90;;;;;;4992944;28;20140;-85
2023/04/21 05:28:23;;;;;;;26.65;13.25;;;7.90;99.90;;;;;;4979512;28;20057;-84
2023/04/21 05:31:09;;;;;;;28.05;15.25;;;8.00;99.90;;;;;;4993692;28;20086;-81
2023/04/21 05:33:55;;;;;;;28.00;14.38;;;8.10;99.90;;;;;;4992754;28;20058;-86
2023/04/21 05:36:42;;;;;;;29.63;14.45;;;8.10;99.90;;;;;;4993187;28;20046;-86
2023/04/21 05:39:30;;;;;;;22.80;12.48;;;8.20;99.90;;;;;;4991777;28;20061;-87
2023/04/21 05:42:20;;;;;;;26.88;13.32;;;8.30;99.90;;;;;;4996716;28;20137;-85
2023/04/21 05:45:07;;;;;;;29.40;13.25;;;8.30;99.90;;;;;;4992739;28;20136;-87
2023/04/21 05:47:52;;;;;;;24.50;12.35;;;8.40;99.90;;;;;;4992342;28;20050;-83
2023/04/21 05:50:40;;;;;;;24.35;12.88;;;8.50;99.90;;;;;;4992652;28;20054;-83
2023/04/21 05:53:27;;;;;;;26.17;13.10;;;8.50;99.90;;;;;;4978792;28;20469;-86
2023/04/21 05:56:13;;;;;;;26.48;13.15;;;8.60;99.90;;;;;;4991589;28;20058;-83
2023/04/21 05:59:00;;;;;;;28.00;13.73;;;8.70;99.90;;;;;;4992661;28;20145;-82
2023/04/21 06:01:46;;;;;;;20.85;12.30;;;8.80;99.90;;;;;;4992921;28;20057;-82
2023/04/21 06:04:32;;;;;;;29.15;13.00;;;8.90;99.90;;;;;;4992053;28;20137;-82
2023/04/21 06:07:18;;;;;;;22.63;12.00;;;8.90;99.90;;;;;;5009659;28;20052;-84
2023/04/21 06:10:05;;;;;;;23.42;11.90;;;9.00;99.90;;;;;;4993909;28;20060;-81
2023/04/21 06:12:51;;;;;;;21.00;12.57;;;9.20;99.90;;;;;;4995509;28;20064;-85
2023/04/21 06:15:37;;;;;;;25.45;12.23;;;9.30;99.90;;;;;;4995128;28;20053;-86
2023/04/21 06:18:25;;;;;;;27.65;12.00;;;9.40;99.90;;;;;;4995033;28;20177;-85
2023/04/21 06:21:11;;;;;;;21.08;12.50;;;9.50;99.90;;;;;;4995872;28;20046;-82
2023/04/21 06:23:57;;;;;;;26.75;11.32;;;9.60;99.90;;;;;;5013687;28;20038;-85
2023/04/21 06:26:44;;;;;;;24.38;10.90;;;9.70;99.90;;;;;;4995820;28;20097;-85
2023/04/21 06:29:31;;;;;;;23.75;11.55;;;9.80;99.90;;;;;;5013688;28;20049;-86
2023/04/21 06:32:17;;;;;;;22.02;10.85;;;9.90;99.90;;;;;;4994624;28;20049;-86
2023/04/21 06:35:03;;;;;;;24.65;11.48;;;10.10;99.90;;;;;;4994988;28;20498;-86
2023/04/21 06:37:49;;;;;;;22.90;10.70;;;10.20;99.90;;;;;;4995237;28;20108;-84
2023/04/21 06:40:35;;;;;;;20.50;9.73;;;10.30;99.90;;;;;;4995689;28;20643;-82
2023/04/21 06:43:23;;;;;;;19.30;10.43;;;10.40;99.90;;;;;;4982498;28;20096;-86
2023/04/21 06:46:09;;;;;;;18.75;11.27;;;10.50;99.90;;;;;;4982536;28;20088;-83
2023/04/21 06:48:55;;;;;;;22.35;10.60;;;10.60;99.90;;;;;;4997158;28;20093;-86
2023/04/21 06:51:41;;;;;;;21.77;10.57;;;10.60;99.90;;;;;;4982226;28;20050;-85
2023/04/21 06:54:27;;;;;;;21.92;12.75;;;10.70;99.90;;;;;;5013564;28;20096;-83
2023/04/21 06:57:14;;;;;;;23.10;11.48;;;10.80;99.90;;;;;;4995961;28;20049;-83
2023/04/21 07:00:00;;;;;;;19.00;9.73;;;10.90;99.90;;;;;;4994138;28;20061;-84
2023/04/21 07:02:46;;;;;;;17.88;9.98;;;11.00;99.90;;;;;;4982828;28;20136;-82
2023/04/21 07:05:32;;;;;;;18.60;10.10;;;11.10;99.90;;;;;;4996087;28;20066;-84
2023/04/21 07:08:18;;;;;;;19.98;9.95;;;11.30;99.90;;;;;;4982178;28;20058;-87
2023/04/21 07:11:04;;;;;;;17.80;10.02;;;11.40;99.90;;;;;;5011368;28;20644;-83
2023/04/21 07:13:50;;;;;;;23.42;10.55;;;11.60;99.90;;;;;;4994415;28;20053;-87
2023/04/21 07:16:36;;;;;;;18.17;9.32;;;11.70;99.90;;;;;;4994983;28;20057;-82
2023/04/21 07:19:22;;;;;;;20.33;10.27;;;11.80;99.90;;;;;;4994902;28;20065;-87
2023/04/21 07:22:09;;;;;;;15.27;8.80;;;12.10;99.90;;;;;;5012106;28;20050;-81
2023/04/21 07:24:55;;;;;;;19.48;9.73;;;12.30;99.90;;;;;;4993913;28;20136;-86
2023/04/21 07:27:42;;;;;;;21.50;9.95;;;12.40;99.90;;;;;;4989569;28;20101;-86
2023/04/21 07:30:29;;;;;;;20.00;9.00;;;12.60;99.90;;;;;;4961382;28;20737;-86
2023/04/21 07:33:15;;;;;;;24.33;8.73;;;12.80;99.90;;;;;;4962140;28;20573;-85
2023/04/21 07:36:01;;;;;;;17.20;8.00;;;12.90;99.90;;;;;;4975432;28;20054;-85
2023/04/21 07:38:48;;;;;;;23.10;9.35;;;13.10;99.90;;;;;;4974705;28;20058;-87
2023/04/21 07:41:34;;;;;;;17.58;8.73;;;13.30;99.90;;;;;;4992713;28;20047;-86
2023/04/21 07:44:20;;;;;;;15.93;8.52;;;13.40;99.90;;;;;;4974945;28;20057;-86
2023/04/21 07:47:06;;;;;;;14.98;8.30;;;13.50;99.90;;;;;;4977608;28;20137;-84
2023/04/21 07:49:52;;;;;;;14.63;8.95;;;13.60;99.90;;;;;;4949248;28;20058;-87
2023/04/21 07:52:39;;;;;;;18.65;8.60;;;13.80;99.90;;;;;;4965622;28;20137;-85
2023/04/21 07:55:25;;;;;;;22.00;8.38;;;14.00;99.90;;;;;;4991364;28;20054;-85
2023/04/21 07:58:12;;;;;;;15.50;7.82;;;14.20;99.90;;;;;;4975291;28;20502;-88
2023/04/21 08:00:59;;;;;;;17.10;8.55;;;14.30;99.90;;;;;;4975025;28;20050;-84
2023/04/21 08:03:45;;;;;;;15.48;7.30;;;14.30;99.90;;;;;;4960894;28;20558;-87
2023/04/21 08:06:32;;;;;;;16.75;7.95;;;14.50;99.90;;;;;;4975390;28;20474;-87
2023/04/21 08:09:18;;;;;;;20.30;10.43;;;14.60;99.90;;;;;;4960069;28;20050;-84
2023/04/21 08:12:04;;;;;;;17.10;8.38;;;14.70;99.90;;;;;;4974353;28;20417;-83
2023/04/21 08:14:50;;;;;;;17.60;7.55;;;14.60;99.90;;;;;;4960458;28;20050;-86
2023/04/21 08:17:36;;;;;;;15.10;8.75;;;14.80;99.90;;;;;;4973456;28;20070;-87
2023/04/21 08:20:23;;;;;;;13.55;7.60;;;14.90;99.90;;;;;;4974395;28;20046;-87
2023/04/21 08:23:09;;;;;;;19.83;7.43;;;15.10;99.90;;;;;;4975110;28;20066;-84
2023/04/21 08:25:55;;;;;;;18.58;8.10;;;15.20;99.90;;;;;;4973661;28;20042;-85
2023/04/21 08:28:41;;;;;;;17.75;8.55;;;15.40;99.90;;;;;;4973495;28;20081;-84
2023/04/21 08:31:27;;;;;;;17.35;7.70;;;15.50;99.90;;;;;;4973989;28;20054;-85
2023/04/21 08:34:13;;;;;;;22.88;8.10;;;15.60;99.90;;;;;;4991153;28;20132;-85
2023/04/21 08:36:59;;;;;;;18.15;8.15;;;15.80;99.90;;;;;;4974475;28;20054;-83
2023/04/21 08:39:46;;;;;;;15.90;7.97;;;15.90;99.90;;;;;;4974425;28;20614;-85
2023/04/21 08:42:34;;;;;;;14.93;7.35;;;16.00;99.90;;;;;;4973994;28;20180;-83
2023/04/21 08:45:20;;;;;;;16.95;7.70;;;16.10;99.90;;;;;;4974195;28;20474;-87
2023/04/21 08:48:11;;;;;;;17.10;7.97;;;16.30;99.90;;;;;;4974227;28;20160;-84
2023/04/21 08:50:57;;;;;;;28.33;8.00;;;16.50;99.90;;;;;;4991746;28;20042;-83
2023/04/21 08:53:43;;;;;;;16.90;7.47;;;16.60;99.90;;;;;;4974027;28;20153;-86
2023/04/21 08:56:29;;;;;;;16.67;7.80;;;16.70;99.90;;;;;;4991639;28;20054;-85
2023/04/21 08:59:15;;;;;;;13.77;7.55;;;16.80;99.90;;;;;;4991176;28;20065;-84
2023/04/21 09:02:16;;;;;;;19.88;8.38;;;16.90;99.90;;;;;;4974076;28;20058;-85
2023/04/21 09:05:02;;;;;;;15.85;7.50;;;17.00;99.90;;;;;;4974022;28;20065;-84
2023/04/21 09:07:48;;;;;;;14.85;7.63;;;17.20;99.90;;;;;;4991366;28;20461;-81
2023/04/21 09:10:46;;;;;;;21.77;8.60;;;17.40;99.90;;;;;;4960809;28;20050;-80
2023/04/21 09:13:34;;;;;;;19.70;8.07;;;17.60;99.90;;;;;;4973649;28;20407;-81
2023/04/21 09:16:21;;;;;;;15.07;7.85;;;17.70;99.90;;;;;;4990454;28;20222;-86
2023/04/21 09:19:15;;;;;;;16.25;8.25;;;17.80;99.90;;;;;;4960355;28;20124;-85
2023/04/21 09:22:01;;;;;;;18.45;8.05;;;17.90;99.90;;;;;;4973741;28;20578;-82
2023/04/21 09:24:56;;;;;;;14.88;7.95;;;17.90;99.90;;;;;;4947482;28;20411;-87
2023/04/21 09:27:43;;;;;;;19.90;8.15;;;18.10;99.90;;;;;;4990714;28;20421;-82
2023/04/21 09:30:33;;;;;;;15.63;8.32;;;18.30;99.90;;;;;;4993054;28;20140;-84
2023/04/21 09:33:20;;;;;;;20.40;7.43;;;18.30;99.90;;;;;;4992670;28;20054;-84
2023/04/21 09:36:06;;;;;;;23.33;8.30;;;18.30;99.90;;;;;;4993614;28;20144;-83
2023/04/21 09:38:58;;;;;;;19.17;7.82;;;18.50;99.90;;;;;;5010565;28;20220;-84
2023/04/21 09:41:45;;;;;;;20.85;7.95;;;18.60;99.90;;;;;;4992449;28;20116;-84
2023/04/21 09:44:31;;;;;;;13.43;6.93;;;18.60;99.90;;;;;;4993825;28;20062;-82
2023/04/21 09:47:18;;;;;;;17.38;6.72;;;18.70;99.90;;;;;;4995838;28;20045;-83
2023/04/21 09:50:10;;;;;;;16.77;7.45;;;18.80;99.90;;;;;;5014266;28;20052;-83
2023/04/21 09:52:57;;;;;;;20.35;7.25;;;19.00;99.90;;;;;;4996987;28;20120;-82
2023/04/21 09:55:48;;;;;;;19.58;7.55;;;18.90;99.90;;;;;;5012886;28;20046;-85
2023/04/21 09:58:39;;;;;;;23.63;8.43;;;18.90;99.90;;;;;;4996986;28;20050;-85
2023/04/21 10:01:28;;;;;;;16.67;7.57;;;19.00;99.90;;;;;;5011751;28;20050;-86
2023/04/21 10:04:14;;;;;;;20.67;8.05;;;19.10;99.90;;;;;;4982859;28;20524;-82
2023/04/21 10:07:01;;;;;;;23.10;8.40;;;19.20;99.90;;;;;;4995276;28;20054;-83
2023/04/21 10:09:53;;;;;;;17.83;7.75;;;19.30;99.90;;;;;;4995871;28;20046;-87
2023/04/21 10:12:39;;;;;;;17.42;7.80;;;19.40;99.90;;;;;;5012943;28;20042;-87
2023/04/21 10:15:34;;;;;;;20.15;7.90;;;19.50;99.90;;;;;;4995718;28;20502;-87
2023/04/21 10:18:22;;;;;;;15.32;7.88;;;19.50;99.80;;;;;;5011011;28;20414;-87
2023/04/21 10:21:11;;;;;;;14.82;8.02;;;19.60;99.90;;;;;;4994934;28;20045;-85
2023/04/21 10:23:58;;;;;;;21.98;8.30;;;19.70;99.60;;;;;;4994869;28;20062;-85
2023/04/21 10:26:43;;;;;;;17.23;8.65;;;19.70;99.90;;;;;;5013681;28;20053;-86
2023/04/21 10:29:32;;;;;;;16.17;8.25;;;19.80;99.80;;;;;;4996054;28;20104;-82
2023/04/21 10:32:41;;;;;;;20.17;8.57;;;19.80;99.50;;;;;;4995200;28;20056;-88
2023/04/21 10:36:00;;;;;;;15.85;8.98;;;19.90;99.30;;;;;;5012421;28;20076;-88
2023/04/21 10:38:56;;;;;;;19.45;9.00;;;20.00;98.40;;;;;;4999299;28;20402;-86
2023/04/21 10:41:43;;;;;;;17.02;8.70;;;20.00;98.30;;;;;;4997583;28;20401;-87
2023/04/21 10:44:29;;;;;;;14.93;7.85;;;20.10;98.80;;;;;;5011925;28;20425;-86
2023/04/21 10:47:25;;;;;;;17.02;8.60;;;20.30;98.90;;;;;;4995864;28;20557;-86
2023/04/21 10:50:24;;;;;;;16.08;8.82;;;20.40;97.50;;;;;;4995760;28;20406;-86
2023/04/21 10:53:12;;;;;;;14.75;8.18;;;20.40;98.00;;;;;;4999247;28;20375;-87
2023/04/21 10:55:58;;;;;;;18.02;8.20;;;20.50;98.30;;;;;;4994322;28;20045;-87
2023/04/21 10:58:44;;;;;;;20.27;9.00;;;20.60;97.80;;;;;;5011595;28;20159;-87
2023/04/21 11:01:30;;;;;;;17.50;9.27;;;20.60;98.00;;;;;;4994934;28;20049;-88
2023/04/21 11:04:18;;;;;;;17.58;8.80;;;20.70;97.50;;;;;;4993613;28;20042;-87
2023/04/21 11:07:13;;;;;;;18.90;8.63;;;20.80;97.60;;;;;;4994944;28;20565;-85
2023/04/21 11:10:05;;;;;;;17.50;8.65;;;20.80;96.40;;;;;;4994276;28;20486;-86
2023/04/21 11:12:56;;;;;;;19.27;8.98;;;20.70;97.00;;;;;;4994328;28;20058;-85
2023/04/21 11:15:55;;;;;;;21.35;9.25;;;20.80;96.90;;;;;;4993946;28;20062;-87
2023/04/21 11:18:43;;;;;;;22.75;8.73;;;21.20;97.10;;;;;;5011514;28;20054;-86
2023/04/21 11:21:29;;;;;;;19.17;9.63;;;21.20;96.50;;;;;;4993895;28;20049;-89
2023/04/21 11:24:15;;;;;;;15.65;8.73;;;21.30;96.20;;;;;;4995369;28;20089;-88
2023/04/21 11:27:01;;;;;;;17.98;9.18;;;21.60;95.60;;;;;;4993508;28;20054;-89
2023/04/21 11:29:50;;;;;;;20.08;9.88;;;21.60;95.80;;;;;;5012887;28;20061;-85
2023/04/21 11:32:37;;;;;;;18.88;8.93;;;21.60;95.00;;;;;;4980520;28;20188;-86
2023/04/21 11:35:23;;;;;;;19.08;9.38;;;21.60;95.30;;;;;;4993254;28;20584;-88
2023/04/21 11:38:09;;;;;;;18.48;9.45;;;21.80;95.10;;;;;;4993130;28;20498;-86
2023/04/21 11:40:55;;;;;;;17.55;9.70;;;21.80;94.70;;;;;;4998689;28;20375;-87
2023/04/21 11:43:45;;;;;;;23.45;10.18;;;22.10;94.30;;;;;;5010919;28;20045;-86
2023/04/21 11:46:36;;;;;;;17.75;9.38;;;22.10;93.90;;;;;;5010876;28;20053;-87
2023/04/21 11:49:28;;;;;;;22.00;10.75;;;21.80;93.80;;;;;;4994261;28;20085;-89
2023/04/21 11:52:20;;;;;;;19.85;8.82;;;22.00;93.60;;;;;;4993139;28;20057;-85
2023/04/21 11:55:17;;;;;;;19.13;9.23;;;22.10;94.40;;;;;;5009180;28;20057;-86
2023/04/21 11:58:03;;;;;;;15.73;9.60;;;22.50;93.60;;;;;;5013602;28;20140;-86
2023/04/21 12:00:50;;;;;;;17.67;9.98;;;22.90;93.50;;;;;;5010633;28;20064;-86
2023/04/21 12:03:36;;;;;;;16.83;9.38;;;23.30;92.60;;;;;;5010414;28;20057;-87
2023/04/21 12:06:27;;;;;;;16.98;8.77;;;23.30;92.40;;;;;;4993191;28;20494;-86
2023/04/21 12:09:18;;;;;;;15.73;8.85;;;23.30;91.70;;;;;;4993966;28;20133;-86
2023/04/21 12:12:05;;;;;;;16.02;10.38;;;23.30;91.70;;;;;;5009900;28;20136;-87
2023/04/21 12:14:51;;;;;;;21.52;8.63;;;23.60;91.90;;;;;;5010527;28;20058;-87
2023/04/21 12:17:38;;;;;;;15.70;8.70;;;23.60;91.40;;;;;;5011501;28;20050;-87
2023/04/21 12:20:28;;;;;;;14.57;10.25;;;23.60;91.30;;;;;;5010705;28;20054;-86
2023/04/21 12:23:14;;;;;;;21.27;9.57;;;23.20;90.80;;;;;;4992640;28;20498;-87
2023/04/21 12:26:00;;;;;;;17.02;9.55;;;23.30;91.30;;;;;;5006123;28;20058;-84
2023/04/21 12:28:46;;;;;;;20.52;8.98;;;23.60;91.00;;;;;;4991416;28;20056;-88
2023/04/21 12:31:32;;;;;;;15.30;8.70;;;23.70;90.70;;;;;;4990372;28;20051;-86
2023/04/21 12:34:18;;;;;;;19.58;9.50;;;23.80;90.50;;;;;;4972400;28;20077;-83
2023/04/21 12:37:05;;;;;;;15.82;9.75;;;23.90;90.10;;;;;;4972770;28;20046;-84
2023/04/21 12:39:51;;;;;;;18.23;9.30;;;24.20;88.80;;;;;;4972134;28;20050;-88
2023/04/21 12:42:39;;;;;;;16.05;9.32;;;23.90;87.70;;;;;;4973230;28;20100;-86
2023/04/21 12:45:25;;;;;;;17.35;8.98;;;22.80;89.00;;;;;;4990294;28;20109;-88
2023/04/21 12:48:11;;;;;;;14.57;9.27;;;22.70;90.00;;;;;;4960564;28;20066;-85
2023/04/21 12:50:57;;;;;;;18.90;9.90;;;23.10;90.20;;;;;;4973054;28;20050;-85
2023/04/21 12:53:44;;;;;;;18.67;9.32;;;23.40;90.20;;;;;;4947726;28;20058;-86
2023/04/21 12:56:30;;;;;;;20.73;9.45;;;23.70;89.60;;;;;;4977300;28;20054;-83
2023/04/21 12:59:16;;;;;;;15.77;9.00;;;23.40;88.70;;;;;;4961308;28;20050;-87
2023/04/21 13:02:02;;;;;;;19.40;10.52;;;23.80;88.90;;;;;;4972325;28;20050;-87
2023/04/21 13:04:48;;;;;;;21.25;10.68;;;24.20;87.70;;;;;;4972582;28;20086;-88
2023/04/21 13:07:34;;;;;;;20.55;10.93;;;23.40;87.30;;;;;;4990953;28;20050;-87
2023/04/21 13:10:20;;;;;;;22.80;11.18;;;22.70;88.90;;;;;;4973156;28;20054;-87
2023/04/21 13:13:07;;;;;;;20.38;10.35;;;22.20;90.30;;;;;;4958860;28;20065;-86
2023/04/21 13:15:53;;;;;;;15.55;9.98;;;22.10;91.00;;;;;;4959446;28;20073;-88
2023/04/21 13:18:39;;;;;;;19.55;9.82;;;23.20;90.30;;;;;;4989825;28;20506;-88
2023/04/21 13:21:26;;;;;;;17.17;9.35;;;23.50;89.00;;;;;;4972551;28;20057;-88
2023/04/21 13:24:12;;;;;;;20.42;10.75;;;23.90;87.50;;;;;;4973338;28;20068;-85
2023/04/21 13:27:00;;;;;;;19.70;10.80;;;23.30;87.30;;;;;;5002408;28;20050;-86
2023/04/21 13:29:48;;;;;;;20.23;10.43;;;22.60;87.90;;;;;;4991679;28;20453;-86
2023/04/21 13:32:34;;;;;;;17.25;8.70;;;22.10;90.00;;;;;;5010555;28;20762;-87
2023/04/21 13:35:20;;;;;;;19.17;9.25;;;22.70;89.20;;;;;;4992684;28;20486;-82
2023/04/21 13:38:06;;;;;;;13.75;8.95;;;23.80;86.80;;;;;;4992020;28;20132;-88
2023/04/21 13:40:52;;;;;;;19.92;9.13;;;24.40;83.80;;;;;;4992799;28;20054;-82
2023/04/21 13:43:39;;;;;;;16.80;9.88;;;24.50;82.50;;;;;;4979403;28;20041;-84
2023/04/21 13:46:25;;;;;;;17.35;9.45;;;25.30;80.80;;;;;;4991699;28;20057;-86
2023/04/21 13:49:11;;;;;;;15.65;8.75;;;25.40;80.00;;;;;;4996075;28;20081;-87
2023/04/21 13:51:57;;;;;;;17.45;8.43;;;26.10;78.90;;;;;;4991399;28;20570;-86
2023/04/21 13:54:43;;;;;;;19.13;9.50;;;26.00;78.90;;;;;;4990494;28;20072;-85
2023/04/21 13:57:29;;;;;;;20.60;9.73;;;25.40;77.10;;;;;;4979612;28;20046;-86
2023/04/21 14:00:16;;;;;;;16.75;8.95;;;24.90;78.80;;;;;;4992872;28;20050;-89
2023/04/21 14:03:03;;;;;;;15.32;9.55;;;25.40;77.80;;;;;;4992715;28;20054;-85
2023/04/21 14:05:49;;;;;;;13.80;8.55;;;24.80;78.00;;;;;;4992540;28;20054;-86
2023/04/21 14:08:35;;;;;;;16.42;8.43;;;25.40;76.50;;;;;;5009043;28;20050;-87
2023/04/21 14:11:21;;;;;;;20.45;9.10;;;24.90;76.40;;;;;;4993162;28;20054;-87
2023/04/21 14:14:07;;;;;;;15.45;9.25;;;25.20;76.50;;;;;;4991039;28;20460;-82
2023/04/21 14:16:52;;;;;;;15.90;9.10;;;25.20;76.20;;;;;;4995254;28;20061;-90